createdAt,value
2018-11-29T00:04:30.807Z,39.17
2018-11-29T00:14:49.851Z,30.53
2018-11-29T00:24:53.983Z,26.77
2018-11-29T00:34:58.140Z,21.23
2018-11-29T00:45:02.259Z,23.30
2018-11-29T00:55:07.401Z,25.20
2018-11-29T01:05:11.584Z,18.77
2018-11-29T01:15:18.301Z,18.23
2018-11-29T01:25:22.401Z,19.40
2018-11-29T01:35:26.500Z,14.97
2018-11-29T01:45:30.615Z,15.33
2018-11-29T01:55:34.973Z,13.43
2018-11-29T02:05:39.085Z,12.80
2018-11-29T02:15:43.168Z,15.37
2018-11-29T02:25:47.274Z,11.77
2018-11-29T02:35:51.484Z,10.83
2018-11-29T02:45:55.603Z,15.30
2018-11-29T02:55:59.704Z,9.37
2018-11-29T03:06:03.863Z,13.77
2018-11-29T03:16:07.971Z,7.40
2018-11-29T03:26:12.176Z,10.17
2018-11-29T03:36:16.269Z,12.77
2018-11-29T03:46:20.432Z,12.23
2018-11-29T03:56:24.516Z,10.53
2018-11-29T04:06:28.613Z,11.50
2018-11-29T04:16:32.727Z,6.83
2018-11-29T04:26:36.822Z,5.70
2018-11-29T04:36:40.976Z,4.77
2018-11-29T04:46:46.621Z,8.40
2018-11-29T04:56:50.740Z,5.53
2018-11-29T05:06:54.937Z,7.83
2018-11-29T05:16:59.071Z,4.83
2018-11-29T05:27:03.193Z,8.13
2018-11-29T05:37:07.341Z,5.70
2018-11-29T05:47:11.506Z,9.10
2018-11-29T05:57:15.690Z,6.43
2018-11-29T06:07:19.876Z,5.83
2018-11-29T06:17:24.039Z,6.73
2018-11-29T06:27:28.444Z,9.30
2018-11-29T06:37:32.650Z,4.27
2018-11-29T06:47:37.092Z,5.93
2018-11-29T06:57:41.228Z,7.17
2018-11-29T07:07:45.300Z,11.73
2018-11-29T07:17:49.550Z,9.33
2018-11-29T07:27:53.654Z,5.57
2018-11-29T07:37:58.206Z,18.70
2018-11-29T07:48:02.575Z,7.37
2018-11-29T07:58:07.532Z,11.03
2018-11-29T08:08:11.719Z,10.93
2018-11-29T08:18:16.021Z,10.10
2018-11-29T08:28:20.125Z,15.77
2018-11-29T08:38:24.245Z,15.80
2018-11-29T08:48:28.780Z,12.97
2018-11-29T08:58:33.075Z,8.87
2018-11-29T09:08:37.162Z,7.17
2018-11-29T09:18:41.531Z,9.80
2018-11-29T09:28:45.766Z,13.40
2018-11-29T09:38:49.971Z,14.10
2018-11-29T09:48:54.369Z,10.57
2018-11-29T09:58:58.622Z,15.27
2018-11-29T10:09:02.783Z,9.10
2018-11-29T10:19:07.009Z,8.93
2018-11-29T10:29:11.229Z,7.67
2018-11-29T10:39:15.423Z,6.53
2018-11-29T10:49:19.673Z,9.77
2018-11-29T10:59:23.797Z,8.70
2018-11-29T11:09:27.957Z,11.97
2018-11-29T11:19:32.123Z,12.00
2018-11-29T11:29:36.501Z,10.13
2018-11-29T11:39:40.682Z,13.10
2018-11-29T11:49:44.839Z,6.80
2018-11-29T11:59:48.973Z,8.27
2018-11-29T12:09:53.130Z,7.93
2018-11-29T12:19:57.260Z,7.80
2018-11-29T12:30:01.622Z,8.93
2018-11-29T12:40:08.223Z,27.07
2018-11-29T12:50:15.319Z,268.37
2018-11-29T13:00:20.702Z,413.43
2018-11-29T13:10:26.722Z,474.57
2018-11-29T13:20:32.610Z,449.70
2018-11-29T13:30:36.381Z,415.13
2018-11-29T13:40:41.586Z,394.30
2018-11-29T13:50:45.858Z,339.83
2018-11-29T14:00:50.084Z,310.43
2018-11-29T14:10:54.348Z,271.00
2018-11-29T14:20:58.530Z,237.17
2018-11-29T14:31:02.835Z,217.57
2018-11-29T14:41:07.318Z,179.50
2018-11-29T14:51:11.426Z,163.70
2018-11-29T15:01:15.741Z,147.37
2018-11-29T15:11:19.839Z,134.63
2018-11-29T15:21:24.110Z,115.80
2018-11-29T15:31:28.267Z,96.00
2018-11-29T15:41:32.439Z,97.00
2018-11-29T15:51:37.077Z,83.63
2018-11-29T16:01:41.677Z,75.67
2018-11-29T16:11:46.089Z,69.07
2018-11-29T16:21:51.333Z,59.37
2018-11-29T16:31:54.957Z,55.00
2018-11-29T16:41:59.658Z,48.80
2018-11-29T16:52:04.147Z,39.30
2018-11-29T17:02:08.595Z,37.17
2018-11-29T17:12:13.141Z,39.50
2018-11-29T17:22:17.542Z,32.97
2018-11-29T17:32:22.268Z,29.07
2018-11-29T17:42:26.804Z,38.27
2018-11-29T17:52:31.239Z,45.80
2018-11-29T18:02:36.056Z,43.67
2018-11-29T18:12:40.490Z,38.20
2018-11-29T18:22:44.966Z,44.10
2018-11-29T18:32:49.409Z,33.80
2018-11-29T18:42:55.377Z,27.93
2018-11-29T18:53:00.784Z,30.37
2018-11-29T19:03:05.588Z,28.77
2018-11-29T19:13:11.182Z,50.90
2018-11-29T19:23:15.683Z,248.10
2018-11-29T19:33:22.738Z,574.53
2018-11-29T19:43:27.185Z,574.80
2018-11-29T19:53:31.651Z,550.30
2018-11-29T20:03:36.115Z,501.00
2018-11-29T20:13:40.567Z,471.53
2018-11-29T20:23:44.945Z,421.57
2018-11-29T20:33:49.345Z,364.77
2018-11-29T20:43:53.962Z,316.60
2018-11-29T20:53:58.430Z,286.83
2018-11-29T21:04:03.178Z,251.87
2018-11-29T21:14:07.931Z,211.87
2018-11-29T21:24:12.448Z,200.77
2018-11-29T21:34:16.821Z,167.67
2018-11-29T21:44:21.239Z,141.70
2018-11-29T21:54:25.608Z,127.37
2018-11-29T22:04:30.053Z,115.33
2018-11-29T22:14:34.430Z,100.07
2018-11-29T22:24:38.840Z,85.67
2018-11-29T22:34:43.323Z,77.70
2018-11-29T22:44:47.710Z,72.73
2018-11-29T22:54:52.202Z,73.50
2018-11-29T23:04:56.649Z,62.93
2018-11-29T23:15:01.049Z,73.03
2018-11-29T23:25:06.502Z,72.83
2018-11-29T23:35:11.461Z,63.33
2018-11-29T23:45:15.884Z,54.60
2018-11-29T23:55:21.226Z,48.53
